Time;durP1;ratioP1;P1;durP2;ratioP2;P2;SDS_P1;SDS_P2;PMS_P1;PMS_P2;Temp;Humidity;BMP_temperature;BMP_pressure;BME280_temperature;BME280_humidity;BME280_pressure;Samples;Min_cycle;Max_cycle;Signal;HPM_P1;HPM_P2
2023/09/23 00:01:39;;;;;;;2.70;1.10;;;;;14.40;98051.00;;;;5053776;28;20044;-64
2023/09/23 00:04:06;;;;;;;1.73;1.10;;;;;14.40;98056.00;;;;5052333;28;20413;-64
2023/09/23 00:06:33;;;;;;;4.60;1.20;;;;;14.40;98057.00;;;;5053884;28;20037;-64
2023/09/23 00:09:02;;;;;;;4.05;1.00;;;;;14.40;98057.00;;;;5054256;28;20048;-65
2023/09/23 00:11:29;;;;;;;2.85;1.00;;;;;14.40;98067.00;;;;5054105;28;20041;-65
2023/09/23 00:13:55;;;;;;;1.10;0.90;;;;;14.40;98068.00;;;;5052239;28;20047;-65
2023/09/23 00:16:22;;;;;;;3.42;1.10;;;;;14.40;98072.00;;;;5053135;28;20132;-65
2023/09/23 00:18:49;;;;;;;1.35;0.85;;;;;14.40;98065.00;;;;5053582;28;20048;-65
2023/09/23 00:21:15;;;;;;;1.20;0.95;;;;;14.40;98073.00;;;;5053361;28;20040;-65
2023/09/23 00:23:44;;;;;;;2.10;1.00;;;;;14.30;98070.00;;;;5052851;28;20073;-65
2023/09/23 00:26:11;;;;;;;3.15;1.15;;;;;14.30;98071.00;;;;5053317;28;20041;-65
2023/09/23 00:28:38;;;;;;;1.63;1.00;;;;;14.40;98069.00;;;;5052242;28;20140;-65
2023/09/23 00:31:14;;;;;;;1.05;0.80;;;;;14.40;98078.00;;;;5053382;28;20052;-65
2023/09/23 00:33:41;;;;;;;1.35;0.88;;;;;14.40;98082.00;;;;5051551;28;20140;-65
2023/09/23 00:36:09;;;;;;;1.42;0.90;;;;;14.40;98084.00;;;;5051711;28;20144;-65
2023/09/23 00:38:37;;;;;;;0.80;0.80;;;;;14.40;98080.00;;;;5053245;28;20047;-65
2023/09/23 00:41:05;;;;;;;2.08;0.90;;;;;14.40;98090.00;;;;5053053;28;20049;-65
2023/09/23 00:43:33;;;;;;;2.30;1.00;;;;;14.30;98080.00;;;;5052459;28;20045;-65
2023/09/23 00:46:03;;;;;;;2.47;0.70;;;;;14.30;98085.00;;;;5051617;28;20136;-63
2023/09/23 00:48:36;;;;;;;1.23;0.90;;;;;14.30;98088.00;;;;5035211;28;20453;-64
2023/09/23 00:51:03;;;;;;;5.75;1.05;;;;;14.30;98088.00;;;;5051628;28;20045;-64
2023/09/23 00:53:30;;;;;;;5.47;1.00;;;;;14.30;98095.00;;;;5051062;28;20132;-64
2023/09/23 00:56:00;;;;;;;1.30;0.85;;;;;14.30;98104.00;;;;5052619;28;20057;-64
2023/09/23 00:58:27;;;;;;;0.98;0.80;;;;;14.30;98100.00;;;;5052826;28;20087;-64
2023/09/23 01:00:54;;;;;;;4.47;0.90;;;;;14.30;98104.00;;;;5034039;28;20510;-64
2023/09/23 01:03:22;;;;;;;2.05;1.00;;;;;14.30;98106.00;;;;5052691;28;20073;-64
2023/09/23 01:06:03;;;;;;;1.10;0.80;;;;;14.20;98101.00;;;;5050781;28;20041;-64
2023/09/23 01:08:32;;;;;;;3.00;0.90;;;;;14.20;98100.00;;;;5051378;28;20055;-64
2023/09/23 01:11:00;;;;;;;1.40;1.13;;;;;14.20;98100.00;;;;5052001;28;20068;-65
2023/09/23 01:13:29;;;;;;;0.82;0.82;;;;;14.20;98093.00;;;;5052425;28;20071;-66
2023/09/23 01:15:57;;;;;;;1.98;0.88;;;;;14.20;98095.00;;;;5052245;28;20055;-66
2023/09/23 01:18:24;;;;;;;2.97;1.02;;;;;14.20;98097.00;;;;5051311;28;20147;-66
2023/09/23 01:20:55;;;;;;;1.70;0.80;;;;;14.10;98094.00;;;;5052408;28;20053;-66
2023/09/23 01:23:22;;;;;;;2.03;0.90;;;;;14.10;98101.00;;;;5052392;28;20076;-66
2023/09/23 01:25:49;;;;;;;1.63;0.68;;;;;14.10;98102.00;;;;5051739;28;20439;-66
2023/09/23 01:28:15;;;;;;;2.45;0.90;;;;;14.10;98111.00;;;;5052543;28;20091;-66
2023/09/23 01:30:45;;;;;;;0.80;0.80;;;;;14.10;98111.00;;;;5034511;28;20059;-66
2023/09/23 01:33:13;;;;;;;3.85;1.00;;;;;14.10;98119.00;;;;5051096;28;20055;-66
2023/09/23 01:35:41;;;;;;;3.25;0.88;;;;;14.10;98120.00;;;;5050148;28;20501;-66
2023/09/23 01:38:08;;;;;;;0.90;0.90;;;;;14.10;98120.00;;;;5050986;28;20053;-66
2023/09/23 01:40:36;;;;;;;1.73;0.85;;;;;14.10;98118.00;;;;5050845;28;20044;-66
2023/09/23 01:43:03;;;;;;;2.17;1.02;;;;;14.10;98119.00;;;;5052185;28;20071;-66
2023/09/23 01:45:31;;;;;;;1.00;0.90;;;;;14.00;98115.00;;;;5050181;28;20098;-66
2023/09/23 01:47:58;;;;;;;1.30;0.98;;;;;14.00;98114.00;;;;5051970;28;20115;-66
2023/09/23 01:50:26;;;;;;;1.17;0.98;;;;;13.90;98105.00;;;;5051967;28;20044;-66
2023/09/23 01:52:52;;;;;;;2.63;1.00;;;;;13.90;98112.00;;;;5052004;28;20044;-66
2023/09/23 01:55:19;;;;;;;3.00;1.00;;;;;13.80;98112.00;;;;5050010;28;20057;-66
2023/09/23 01:57:48;;;;;;;2.17;1.08;;;;;13.70;98113.00;;;;5050674;28;20115;-66
2023/09/23 02:00:22;;;;;;;0.75;0.75;;;;;13.70;98117.00;;;;5050570;28;20182;-65
2023/09/23 02:02:49;;;;;;;2.35;0.95;;;;;13.70;98119.00;;;;5051897;28;20044;-65
2023/09/23 02:05:18;;;;;;;1.13;1.00;;;;;13.60;98122.00;;;;5049924;28;20049;-67
2023/09/23 02:07:47;;;;;;;1.67;0.90;;;;;13.60;98123.00;;;;5051776;28;20041;-64
2023/09/23 02:10:15;;;;;;;1.48;1.08;;;;;13.60;98132.00;;;;5051800;28;20045;-64
2023/09/23 02:12:42;;;;;;;1.13;1.00;;;;;13.60;98128.00;;;;5050747;28;20047;-64
2023/09/23 02:15:15;;;;;;;2.17;1.02;;;;;13.50;98134.00;;;;5055189;28;20511;-64
2023/09/23 02:17:43;;;;;;;2.08;0.98;;;;;13.50;98129.00;;;;5054466;28;20160;-63
2023/09/23 02:20:12;;;;;;;3.28;0.93;;;;;13.40;98135.00;;;;5055763;28;20452;-65
2023/09/23 02:22:41;;;;;;;1.88;0.98;;;;;13.40;98136.00;;;;5054646;28;20180;-64
2023/09/23 02:25:11;;;;;;;3.15;1.08;;;;;13.30;98143.00;;;;5054242;28;20124;-64
2023/09/23 02:27:39;;;;;;;2.60;0.90;;;;;13.20;98140.00;;;;5054478;28;20127;-64
2023/09/23 02:30:09;;;;;;;1.40;1.13;;;;;13.20;98142.00;;;;5054512;28;20045;-64
2023/09/23 02:32:46;;;;;;;3.03;1.08;;;;;13.20;98143.00;;;;5055429;28;20120;-64
2023/09/23 02:35:15;;;;;;;2.83;1.05;;;;;13.10;98144.00;;;;5053901;28;20124;-64
2023/09/23 02:37:44;;;;;;;1.27;1.00;;;;;13.00;98146.00;;;;5054415;28;20052;-64
2023/09/23 02:40:14;;;;;;;3.15;1.33;;;;;12.90;98147.00;;;;5054306;28;20045;-64
2023/09/23 02:42:42;;;;;;;1.10;1.00;;;;;12.90;98151.00;;;;5055937;28;20098;-64
2023/09/23 02:45:10;;;;;;;1.50;0.85;;;;;12.90;98151.00;;;;5054957;28;20496;-65
2023/09/23 02:47:38;;;;;;;2.22;1.00;;;;;12.80;98154.00;;;;5053966;28;20480;-64
2023/09/23 02:50:13;;;;;;;1.05;0.95;;;;;12.80;98153.00;;;;5055169;28;20037;-64
2023/09/23 02:52:42;;;;;;;6.13;1.30;;;;;12.70;98151.00;;;;5054048;28;20041;-65
2023/09/23 02:55:15;;;;;;;0.75;0.75;;;;;12.70;98157.00;;;;5054496;28;20057;-64
2023/09/23 02:57:46;;;;;;;3.15;1.10;;;;;12.70;98157.00;;;;5053671;28;20045;-64
2023/09/23 03:00:17;;;;;;;2.42;1.13;;;;;12.70;98158.00;;;;5053926;28;20045;-64
2023/09/23 03:02:50;;;;;;;1.23;0.93;;;;;12.60;98156.00;;;;5055229;28;20493;-65
2023/09/23 03:05:17;;;;;;;1.00;0.90;;;;;12.60;98153.00;;;;5053392;28;20476;-65
2023/09/23 03:07:48;;;;;;;1.13;1.02;;;;;12.60;98155.00;;;;5055069;28;20114;-64
2023/09/23 03:10:19;;;;;;;1.42;0.98;;;;;12.50;98162.00;;;;5053629;28;20124;-65
2023/09/23 03:12:56;;;;;;;2.20;1.10;;;;;12.50;98152.00;;;;5054835;28;20041;-66
2023/09/23 03:15:33;;;;;;;2.03;1.05;;;;;12.50;98151.00;;;;5053011;28;20045;-65
2023/09/23 03:18:01;;;;;;;1.35;0.90;;;;;12.50;98148.00;;;;5053413;28;20118;-65
2023/09/23 03:20:27;;;;;;;2.78;1.15;;;;;12.50;98149.00;;;;5054831;28;20098;-65
2023/09/23 03:22:54;;;;;;;1.58;1.13;;;;;12.50;98152.00;;;;5055264;28;20043;-65
2023/09/23 03:25:21;;;;;;;1.50;1.00;;;;;12.50;98160.00;;;;5052212;28;20140;-64
2023/09/23 03:27:49;;;;;;;3.28;1.23;;;;;12.50;98157.00;;;;5053364;28;20091;-65
2023/09/23 03:30:17;;;;;;;1.58;1.00;;;;;12.40;98164.00;;;;5054602;28;20068;-65
2023/09/23 03:32:45;;;;;;;2.90;1.60;;;;;12.50;98169.00;;;;5054424;28;20041;-65
2023/09/23 03:35:20;;;;;;;1.30;1.08;;;;;12.50;98160.00;;;;5052539;28;20063;-65
2023/09/23 03:37:49;;;;;;;2.45;1.02;;;;;12.50;98167.00;;;;5053151;28;20052;-65
2023/09/23 03:40:24;;;;;;;2.50;1.10;;;;;12.50;98167.00;;;;5053214;28;20516;-64
2023/09/23 03:42:50;;;;;;;1.40;0.95;;;;;12.50;98179.00;;;;5054638;28;20044;-65
2023/09/23 03:45:17;;;;;;;2.60;1.23;;;;;12.50;98178.00;;;;5036917;28;20052;-65
2023/09/23 03:47:45;;;;;;;2.65;0.95;;;;;12.50;98178.00;;;;5055779;28;20072;-65
2023/09/23 03:50:13;;;;;;;1.77;1.08;;;;;12.40;98188.00;;;;5054326;28;20136;-65
2023/09/23 03:52:41;;;;;;;5.15;0.93;;;;;12.40;98182.00;;;;5064724;28;20044;-65
2023/09/23 03:55:14;;;;;;;1.40;1.08;;;;;12.40;98193.00;;;;5074357;28;20048;-66
2023/09/23 03:57:42;;;;;;;3.47;1.17;;;;;12.40;98186.00;;;;5075498;28;20047;-65
2023/09/23 04:00:16;;;;;;;1.45;1.35;;;;;12.30;98193.00;;;;5074697;28;20056;-66
2023/09/23 04:02:47;;;;;;;3.30;1.27;;;;;12.30;98198.00;;;;5073913;28;20049;-65
2023/09/23 04:05:19;;;;;;;1.05;0.98;;;;;12.40;98211.00;;;;5054178;28;20044;-66
2023/09/23 04:07:49;;;;;;;5.03;3.03;;;;;12.40;98209.00;;;;5074144;28;20099;-65
2023/09/23 04:10:23;;;;;;;1.83;1.05;;;;;12.40;98209.00;;;;5073033;28;20049;-65
2023/09/23 04:12:51;;;;;;;1.83;1.15;;;;;12.40;98204.00;;;;5072116;28;20128;-65
2023/09/23 04:15:19;;;;;;;2.50;1.42;;;;;12.50;98204.00;;;;5072230;28;20060;-66
2023/09/23 04:17:47;;;;;;;1.73;1.15;;;;;12.40;98214.00;;;;5071914;28;20529;-66
2023/09/23 04:20:17;;;;;;;1.58;1.20;;;;;12.40;98214.00;;;;5072341;28;20064;-65
2023/09/23 04:22:48;;;;;;;3.08;1.40;;;;;12.40;98217.00;;;;5072662;28;20564;-65
2023/09/23 04:25:15;;;;;;;5.20;2.20;;;;;12.40;98223.00;;;;5074102;28;20052;-65
2023/09/23 04:27:42;;;;;;;2.50;1.40;;;;;12.40;98222.00;;;;5074368;28;20068;-65
2023/09/23 04:30:11;;;;;;;2.97;1.60;;;;;12.50;98228.00;;;;5075865;28;20043;-66
2023/09/23 04:32:42;;;;;;;3.13;1.90;;;;;12.50;98235.00;;;;5073722;28;20045;-66
2023/09/23 04:35:12;;;;;;;2.13;1.90;;;;;12.50;98227.00;;;;5073192;28;20033;-65
2023/09/23 04:37:39;;;;;;;4.60;1.40;;;;;12.40;98233.00;;;;5074357;28;20040;-65
2023/09/23 04:40:11;;;;;;;2.90;1.05;;;;;12.30;98231.00;;;;5075400;28;20540;-65
2023/09/23 04:42:40;;;;;;;1.58;1.23;;;;;12.30;98234.00;;;;5075197;28;20051;-65
2023/09/23 04:45:08;;;;;;;2.03;1.10;;;;;12.30;98232.00;;;;5075137;28;20065;-65
2023/09/23 04:47:35;;;;;;;3.53;1.30;;;;;12.20;98240.00;;;;5076759;28;20097;-65
2023/09/23 04:50:05;;;;;;;2.05;1.30;;;;;12.20;98248.00;;;;5077069;28;20025;-66
2023/09/23 04:52:32;;;;;;;1.30;1.10;;;;;12.20;98241.00;;;;5078064;28;20035;-65
2023/09/23 04:54:59;;;;;;;2.55;1.60;;;;;12.20;98251.00;;;;5061217;28;20128;-66
2023/09/23 04:57:26;;;;;;;2.15;1.10;;;;;12.20;98254.00;;;;5054693;28;20059;-66
2023/09/23 04:59:52;;;;;;;1.88;1.30;;;;;12.20;98257.00;;;;5054384;28;20132;-65
2023/09/23 05:02:19;;;;;;;2.63;1.40;;;;;12.10;98252.00;;;;5052665;28;20065;-65
2023/09/23 05:04:46;;;;;;;2.10;1.10;;;;;12.10;98253.00;;;;5053175;28;20052;-65
2023/09/23 05:07:13;;;;;;;1.95;1.30;;;;;12.10;98257.00;;;;5052140;28;20073;-66
2023/09/23 05:09:41;;;;;;;2.90;1.20;;;;;12.10;98270.00;;;;5053299;28;20045;-65
2023/09/23 05:12:10;;;;;;;1.42;1.10;;;;;12.10;98269.00;;;;5053530;28;20059;-66
2023/09/23 05:14:39;;;;;;;4.22;1.33;;;;;12.00;98284.00;;;;5051781;28;20055;-65
2023/09/23 05:17:06;;;;;;;1.77;1.23;;;;;12.00;98290.00;;;;5052737;28;20041;-65
2023/09/23 05:19:33;;;;;;;2.05;1.38;;;;;12.10;98290.00;;;;5053388;28;20045;-65
2023/09/23 05:22:00;;;;;;;4.68;2.30;;;;;12.10;98303.00;;;;5053127;28;20045;-65
2023/09/23 05:24:27;;;;;;;3.25;1.30;;;;;12.10;98303.00;;;;5052507;28;20048;-65
2023/09/23 05:26:55;;;;;;;1.20;1.10;;;;;12.20;98308.00;;;;5051666;28;20115;-65
2023/09/23 05:29:24;;;;;;;2.92;1.55;;;;;12.20;98301.00;;;;5052998;28;20067;-65
2023/09/23 05:31:51;;;;;;;3.08;1.30;;;;;12.20;98307.00;;;;5052846;28;20115;-66
2023/09/23 05:34:20;;;;;;;2.80;1.00;;;;;12.20;98314.00;;;;5052457;28;20468;-66
2023/09/23 05:36:47;;;;;;;1.15;1.00;;;;;12.20;98314.00;;;;5051823;28;20048;-66
2023/09/23 05:39:19;;;;;;;1.25;1.15;;;;;12.20;98314.00;;;;5052895;28;20041;-65
2023/09/23 05:41:47;;;;;;;4.68;1.27;;;;;12.20;98324.00;;;;5051501;28;20056;-65
2023/09/23 05:44:16;;;;;;;2.65;1.20;;;;;12.10;98323.00;;;;5051976;28;20497;-65
2023/09/23 05:46:43;;;;;;;2.42;1.42;;;;;12.10;98323.00;;;;5051252;28;20490;-65
2023/09/23 05:49:12;;;;;;;4.07;1.63;;;;;12.10;98324.00;;;;5051566;28;20041;-65
2023/09/23 05:51:38;;;;;;;4.00;1.40;;;;;12.10;98322.00;;;;5053341;28;20056;-65
2023/09/23 05:54:08;;;;;;;1.98;1.15;;;;;12.10;98329.00;;;;5053818;28;20052;-65
2023/09/23 05:56:35;;;;;;;2.47;1.33;;;;;12.00;98321.00;;;;5053501;28;20141;-65
2023/09/23 05:59:02;;;;;;;2.40;1.17;;;;;12.10;98328.00;;;;5051918;28;20444;-65
2023/09/23 06:01:29;;;;;;;2.25;1.20;;;;;12.10;98337.00;;;;5051934;28;20536;-65
2023/09/23 06:03:56;;;;;;;1.65;1.13;;;;;12.10;98337.00;;;;5051530;28;20497;-65
2023/09/23 06:06:23;;;;;;;2.13;1.00;;;;;12.10;98349.00;;;;5051996;28;20037;-64
2023/09/23 06:08:50;;;;;;;1.45;0.90;;;;;12.10;98334.00;;;;5052301;28;20045;-64
2023/09/23 06:11:17;;;;;;;1.70;1.05;;;;;12.10;98336.00;;;;5050700;28;20509;-66
2023/09/23 06:13:44;;;;;;;4.68;1.45;;;;;12.20;98343.00;;;;5051624;28;20049;-64
2023/09/23 06:16:11;;;;;;;1.58;1.25;;;;;12.30;98339.00;;;;5051986;28;20068;-64
2023/09/23 06:18:38;;;;;;;5.40;1.67;;;;;12.30;98353.00;;;;5051957;28;20120;-64
2023/09/23 06:21:06;;;;;;;2.95;1.30;;;;;12.40;98362.00;;;;5054407;28;20037;-65
2023/09/23 06:23:33;;;;;;;2.47;1.77;;;;;12.50;98370.00;;;;5051688;28;20124;-65
2023/09/23 06:26:05;;;;;;;3.78;1.40;;;;;12.60;98376.00;;;;5051732;28;20045;-66
2023/09/23 06:28:34;;;;;;;2.85;1.52;;;;;12.70;98376.00;;;;5051916;28;20091;-65
2023/09/23 06:31:01;;;;;;;3.08;1.70;;;;;12.70;98384.00;;;;5051811;28;20045;-65
2023/09/23 06:33:29;;;;;;;1.48;1.05;;;;;12.80;98382.00;;;;5051704;28;20391;-65
2023/09/23 06:35:55;;;;;;;3.20;1.70;;;;;12.90;98399.00;;;;5051685;28;20051;-65
2023/09/23 06:38:22;;;;;;;2.03;1.33;;;;;13.00;98393.00;;;;5051553;28;20059;-65
2023/09/23 06:40:54;;;;;;;2.65;1.20;;;;;13.00;98399.00;;;;5051567;28;20070;-65
2023/09/23 06:43:21;;;;;;;1.20;0.95;;;;;13.10;98404.00;;;;5050394;28;20052;-64
2023/09/23 06:45:58;;;;;;;1.65;1.30;;;;;13.20;98398.00;;;;5051042;28;20083;-64
2023/09/23 06:48:25;;;;;;;3.97;2.67;;;;;13.30;98404.00;;;;5050222;28;20055;-64
2023/09/23 06:51:02;;;;;;;2.17;1.20;;;;;13.50;98403.00;;;;5051472;28;20040;-66
2023/09/23 06:53:30;;;;;;;2.40;1.38;;;;;13.50;98416.00;;;;5051325;28;20526;-66
2023/09/23 06:55:57;;;;;;;4.03;1.50;;;;;13.60;98424.00;;;;5050218;28;20510;-66
2023/09/23 06:58:23;;;;;;;2.65;1.40;;;;;13.60;98421.00;;;;5050406;28;20478;-66
2023/09/23 07:00:50;;;;;;;1.52;1.10;;;;;13.60;98427.00;;;;5054808;28;20045;-66
2023/09/23 07:03:17;;;;;;;3.65;1.60;;;;;13.60;98427.00;;;;5054142;28;20120;-66
2023/09/23 07:05:44;;;;;;;2.50;1.40;;;;;13.70;98424.00;;;;5055167;28;20044;-65
2023/09/23 07:08:10;;;;;;;2.95;1.35;;;;;13.80;98430.00;;;;5055146;28;20033;-66
2023/09/23 07:10:38;;;;;;;1.83;1.30;;;;;13.80;98434.00;;;;5054019;28;20469;-66
2023/09/23 07:13:06;;;;;;;4.53;1.95;;;;;13.80;98431.00;;;;5054434;28;20421;-66
2023/09/23 07:15:40;;;;;;;2.05;1.85;;;;;13.90;98437.00;;;;5054669;28;20040;-66
2023/09/23 07:18:08;;;;;;;4.03;1.67;;;;;14.00;98452.00;;;;5055230;28;20128;-65
2023/09/23 07:20:35;;;;;;;3.88;2.03;;;;;14.10;98451.00;;;;5055297;28;20128;-69
2023/09/23 07:23:02;;;;;;;5.20;2.90;;;;;14.20;98454.00;;;;5055172;28;20504;-66
2023/09/23 07:25:29;;;;;;;3.90;1.52;;;;;14.30;98446.00;;;;5054315;28;20048;-66
2023/09/23 07:27:59;;;;;;;2.20;1.30;;;;;14.40;98455.00;;;;5054717;28;20081;-66
2023/09/23 07:30:26;;;;;;;2.75;1.40;;;;;14.50;98459.00;;;;5053431;28;20521;-66
2023/09/23 07:32:52;;;;;;;5.70;2.17;;;;;14.50;98458.00;;;;5053438;28;20067;-66
2023/09/23 07:35:19;;;;;;;3.95;2.25;;;;;14.60;98464.00;;;;5054041;28;20065;-66
2023/09/23 07:37:46;;;;;;;6.30;2.30;;;;;14.60;98469.00;;;;5053340;28;20405;-66
2023/09/23 07:40:13;;;;;;;2.03;1.35;;;;;14.80;98465.00;;;;5054549;28;20076;-66
2023/09/23 07:42:40;;;;;;;5.18;2.10;;;;;14.80;98472.00;;;;5054612;28;20045;-66
2023/09/23 07:45:08;;;;;;;3.28;1.95;;;;;14.90;98477.00;;;;5052467;28;20091;-66
2023/09/23 07:47:35;;;;;;;4.88;2.10;;;;;14.90;98478.00;;;;5053003;28;20593;-67
2023/09/23 07:50:02;;;;;;;7.15;1.52;;;;;14.90;98473.00;;;;5054340;28;20055;-66
2023/09/23 07:52:30;;;;;;;1.73;1.30;;;;;15.00;98486.00;;;;5053156;28;20406;-65
2023/09/23 07:54:56;;;;;;;2.58;1.15;;;;;15.00;98479.00;;;;5053590;28;20055;-66
2023/09/23 07:57:24;;;;;;;1.73;1.27;;;;;15.10;98487.00;;;;5053966;28;20037;-66
2023/09/23 07:59:51;;;;;;;4.38;2.25;;;;;15.20;98484.00;;;;5053866;28;20049;-66
2023/09/23 08:02:17;;;;;;;4.22;2.30;;;;;15.30;98487.00;;;;5054265;28;20156;-67
2023/09/23 08:04:44;;;;;;;5.63;2.10;;;;;15.40;98491.00;;;;5053441;28;20690;-66
2023/09/23 08:07:11;;;;;;;5.03;1.70;;;;;15.40;98484.00;;;;5053985;28;20067;-66
2023/09/23 08:09:38;;;;;;;10.40;3.72;;;;;15.50;98499.00;;;;5053777;28;20041;-66
2023/09/23 08:12:04;;;;;;;3.92;2.10;;;;;15.50;98501.00;;;;5053834;28;20060;-67
2023/09/23 08:14:31;;;;;;;4.07;1.98;;;;;15.50;98505.00;;;;5053516;28;20059;-66
2023/09/23 08:16:57;;;;;;;5.00;3.00;;;;;15.50;98508.00;;;;5052492;28;20075;-66
2023/09/23 08:19:24;;;;;;;2.30;1.77;;;;;15.50;98512.00;;;;5054343;28;20037;-65
2023/09/23 08:21:51;;;;;;;5.25;1.83;;;;;15.50;98516.00;;;;5054409;28;20114;-66
2023/09/23 08:24:19;;;;;;;2.60;1.88;;;;;15.70;98525.00;;;;5055348;28;20136;-66
2023/09/23 08:26:45;;;;;;;4.30;2.03;;;;;15.70;98534.00;;;;5054484;28;20417;-67
2023/09/23 08:29:12;;;;;;;3.00;1.98;;;;;15.70;98529.00;;;;5057360;28;20041;-66
2023/09/23 08:31:39;;;;;;;4.55;3.35;;;;;15.70;98536.00;;;;5059407;28;20045;-65
2023/09/23 08:34:09;;;;;;;2.35;1.00;;;;;15.70;98534.00;;;;5057147;28;20055;-65
2023/09/23 08:36:36;;;;;;;1.75;1.30;;;;;15.90;98535.00;;;;5055169;28;20049;-66
2023/09/23 08:39:07;;;;;;;2.80;1.52;;;;;16.10;98536.00;;;;5053944;28;20045;-66
2023/09/23 08:41:35;;;;;;;2.90;1.67;;;;;16.20;98526.00;;;;5053586;28;20107;-65
2023/09/23 08:44:05;;;;;;;3.88;1.65;;;;;16.20;98536.00;;;;5053033;28;20040;-66
2023/09/23 08:46:32;;;;;;;5.13;1.90;;;;;16.20;98547.00;;;;5053238;28;20047;-66
2023/09/23 08:49:00;;;;;;;3.58;1.65;;;;;16.20;98537.00;;;;5053250;28;20128;-66
2023/09/23 08:51:30;;;;;;;3.95;2.15;;;;;16.30;98540.00;;;;5051897;28;20044;-63
2023/09/23 08:53:56;;;;;;;3.45;2.08;;;;;16.40;98539.00;;;;5052508;28;20045;-63
2023/09/23 08:56:23;;;;;;;2.88;1.40;;;;;16.50;98549.00;;;;5053405;28;20128;-63
2023/09/23 08:58:50;;;;;;;4.55;2.17;;;;;16.50;98540.00;;;;5053571;28;20516;-64
2023/09/23 09:01:19;;;;;;;1.77;1.30;;;;;16.50;98540.00;;;;5053895;28;20051;-63
2023/09/23 09:03:47;;;;;;;5.80;2.00;;;;;16.50;98560.00;;;;5053057;28;20041;-63
2023/09/23 09:06:27;;;;;;;3.60;1.98;;;;;16.40;98554.00;;;;5053794;28;20071;-62
2023/09/23 09:08:55;;;;;;;2.85;1.20;;;;;16.50;98553.00;;;;5054191;28;20064;-62
2023/09/23 09:11:23;;;;;;;4.60;1.70;;;;;16.60;98545.00;;;;5054512;28;20055;-62
2023/09/23 09:13:50;;;;;;;3.53;1.60;;;;;16.70;98553.00;;;;5053326;28;20040;-62
2023/09/23 09:16:18;;;;;;;4.07;1.75;;;;;16.80;98551.00;;;;5053586;28;20049;-62
2023/09/23 09:18:49;;;;;;;5.88;1.90;;;;;16.90;98543.00;;;;5053471;28;20045;-62
2023/09/23 09:21:15;;;;;;;5.65;2.20;;;;;17.00;98551.00;;;;5054103;28;20443;-62
2023/09/23 09:23:42;;;;;;;4.57;1.63;;;;;17.20;98553.00;;;;5052376;28;20045;-62
2023/09/23 09:26:09;;;;;;;2.72;1.60;;;;;17.10;98559.00;;;;5053042;28;20128;-62
2023/09/23 09:28:36;;;;;;;3.97;1.90;;;;;17.30;98555.00;;;;5053499;28;20051;-62
2023/09/23 09:31:06;;;;;;;1.65;1.15;;;;;17.30;98564.00;;;;5052689;28;20124;-62
2023/09/23 09:33:36;;;;;;;3.10;1.52;;;;;17.30;98563.00;;;;5051607;28;20044;-62
2023/09/23 09:36:04;;;;;;;6.47;1.83;;;;;17.40;98571.00;;;;5052237;28;20118;-62
2023/09/23 09:38:33;;;;;;;2.67;1.30;;;;;17.30;98577.00;;;;5052138;28;20055;-63
2023/09/23 09:41:04;;;;;;;2.25;1.20;;;;;17.20;98563.00;;;;5051982;28;20068;-63
2023/09/23 09:43:33;;;;;;;7.90;1.77;;;;;17.30;98573.00;;;;5051625;28;20041;-63
2023/09/23 09:46:08;;;;;;;4.13;1.92;;;;;17.20;98582.00;;;;5051903;28;20055;-66
2023/09/23 09:48:41;;;;;;;2.97;1.50;;;;;17.20;98582.00;;;;5050815;28;20139;-68
2023/09/23 09:51:09;;;;;;;3.10;1.75;;;;;17.20;98585.00;;;;5051038;28;20049;-67
2023/09/23 09:53:40;;;;;;;4.88;2.08;;;;;17.30;98586.00;;;;5050206;28;20052;-67
2023/09/23 09:56:07;;;;;;;4.47;1.50;;;;;17.30;98589.00;;;;5051845;28;20051;-67
2023/09/23 09:58:37;;;;;;;4.55;1.95;;;;;17.20;98600.00;;;;5051770;28;20045;-67
2023/09/23 10:01:08;;;;;;;12.80;1.80;;;;;17.10;98596.00;;;;5051838;28;20575;-67
2023/09/23 10:03:36;;;;;;;3.03;1.23;;;;;17.10;98599.00;;;;5051385;28;20049;-65
2023/09/23 10:06:06;;;;;;;2.33;1.45;;;;;17.00;98598.00;;;;5050630;28;20048;-64
2023/09/23 10:08:38;;;;;;;4.18;1.27;;;;;17.00;98597.00;;;;5051757;28;20041;-64
2023/09/23 10:11:08;;;;;;;6.32;2.40;;;;;17.20;98603.00;;;;5050608;28;20052;-64
2023/09/23 10:13:35;;;;;;;3.42;1.48;;;;;17.20;98599.00;;;;5051268;28;20049;-64
2023/09/23 10:16:11;;;;;;;4.25;1.48;;;;;17.30;98592.00;;;;5050064;28;20083;-65
2023/09/23 10:18:42;;;;;;;1.67;0.98;;;;;17.30;98597.00;;;;5051929;28;20056;-64
2023/09/23 10:21:22;;;;;;;2.97;1.52;;;;;17.50;98601.00;;;;5051737;28;20049;-64
2023/09/23 10:23:51;;;;;;;1.85;1.00;;;;;17.50;98589.00;;;;5051302;28;20045;-64
2023/09/23 10:26:19;;;;;;;1.70;1.00;;;;;17.90;98592.00;;;;5051558;28;20049;-64
2023/09/23 10:28:57;;;;;;;1.80;0.98;;;;;18.10;98602.00;;;;5051725;28;20041;-64
2023/09/23 10:31:31;;;;;;;2.67;1.20;;;;;18.20;98600.00;;;;5050391;28;20059;-64
2023/09/23 10:34:06;;;;;;;2.03;0.98;;;;;18.30;98593.00;;;;5051696;28;20049;-66
2023/09/23 10:36:35;;;;;;;3.60;1.30;;;;;18.50;98606.00;;;;5055524;28;20520;-64
2023/09/23 10:39:15;;;;;;;2.22;1.10;;;;;18.70;98606.00;;;;5055420;28;20090;-64
2023/09/23 10:41:42;;;;;;;2.03;1.05;;;;;18.70;98597.00;;;;5055454;28;20048;-64
2023/09/23 10:44:08;;;;;;;4.07;1.20;;;;;18.60;98600.00;;;;5053578;28;20497;-64
2023/09/23 10:46:38;;;;;;;3.55;1.15;;;;;18.60;98591.00;;;;5055350;28;20493;-64
2023/09/23 10:49:06;;;;;;;3.17;1.20;;;;;18.70;98595.00;;;;5055488;28;20485;-64
2023/09/23 10:51:33;;;;;;;1.73;1.05;;;;;18.80;98601.00;;;;5055344;28;20075;-64
2023/09/23 10:53:59;;;;;;;5.18;1.65;;;;;18.90;98594.00;;;;5053578;28;20041;-64
2023/09/23 10:56:26;;;;;;;3.50;1.67;;;;;18.90;98610.00;;;;5055604;28;20076;-64
2023/09/23 10:58:54;;;;;;;3.65;1.50;;;;;18.90;98612.00;;;;5055263;28;20051;-64
2023/09/23 11:01:21;;;;;;;1.58;0.95;;;;;18.70;98621.00;;;;5054998;28;20045;-64
2023/09/23 11:03:48;;;;;;;5.22;1.60;;;;;18.60;98617.00;;;;5054574;28;20049;-64
2023/09/23 11:06:16;;;;;;;5.95;1.83;;;;;18.40;98623.00;;;;5053750;28;20045;-64
2023/09/23 11:08:43;;;;;;;1.80;1.00;;;;;18.50;98621.00;;;;5054984;28;20512;-64
2023/09/23 11:11:12;;;;;;;2.85;1.30;;;;;18.50;98618.00;;;;5055499;28;20099;-65
2023/09/23 11:13:40;;;;;;;6.65;1.13;;;;;18.60;98621.00;;;;5053421;28;20147;-66
2023/09/23 11:16:10;;;;;;;3.13;1.20;;;;;18.70;98628.00;;;;5054718;28;20456;-65
2023/09/23 11:18:37;;;;;;;2.53;1.10;;;;;18.70;98630.00;;;;5054762;28;20131;-65
2023/09/23 11:21:04;;;;;;;1.77;0.85;;;;;18.70;98630.00;;;;5054715;28;20119;-65
2023/09/23 11:23:32;;;;;;;4.30;1.45;;;;;18.80;98636.00;;;;5054139;28;20123;-65
2023/09/23 11:25:59;;;;;;;4.82;1.40;;;;;18.90;98638.00;;;;5054584;28;20572;-64
2023/09/23 11:28:26;;;;;;;3.10;1.08;;;;;19.00;98641.00;;;;5054658;28;20049;-64
2023/09/23 11:30:54;;;;;;;3.88;1.58;;;;;18.90;98632.00;;;;5054431;28;20490;-65
2023/09/23 11:33:21;;;;;;;2.83;1.20;;;;;18.90;98639.00;;;;5054520;28;20127;-66
2023/09/23 11:35:48;;;;;;;3.72;1.50;;;;;18.80;98640.00;;;;5054135;28;20131;-65
2023/09/23 11:38:16;;;;;;;3.13;1.05;;;;;18.80;98644.00;;;;5054620;28;20123;-65
2023/09/23 11:40:45;;;;;;;4.60;1.30;;;;;18.70;98637.00;;;;5054213;28;20485;-64
2023/09/23 11:43:12;;;;;;;3.33;1.52;;;;;18.60;98639.00;;;;5054340;28;20040;-64
2023/09/23 11:45:42;;;;;;;2.08;1.30;;;;;18.70;98635.00;;;;5053597;28;20463;-64
2023/09/23 11:48:09;;;;;;;2.10;1.25;;;;;18.80;98634.00;;;;5054460;28;20480;-65
2023/09/23 11:50:36;;;;;;;2.42;0.93;;;;;18.80;98636.00;;;;5054249;28;20029;-64
2023/09/23 11:53:04;;;;;;;2.75;1.10;;;;;18.80;98637.00;;;;5054258;28;20153;-65
2023/09/23 11:55:32;;;;;;;2.08;1.10;;;;;18.90;98635.00;;;;5053575;28;20550;-66
2023/09/23 11:58:00;;;;;;;1.60;0.98;;;;;19.00;98643.00;;;;5054184;28;20128;-65
2023/09/23 12:00:28;;;;;;;3.63;1.30;;;;;19.20;98648.00;;;;5053940;28;20045;-65
2023/09/23 12:02:55;;;;;;;4.85;1.20;;;;;19.30;98644.00;;;;5054233;28;20362;-65
2023/09/23 12:05:26;;;;;;;2.13;1.20;;;;;19.50;98641.00;;;;5053529;28;20044;-65
2023/09/23 12:07:53;;;;;;;2.67;1.00;;;;;19.70;98653.00;;;;5054308;28;20059;-66
2023/09/23 12:10:20;;;;;;;2.22;1.05;;;;;19.70;98658.00;;;;5054138;28;20416;-65
2023/09/23 12:12:47;;;;;;;2.90;1.23;;;;;19.70;98657.00;;;;5053777;28;20068;-65
2023/09/23 12:15:14;;;;;;;1.80;1.05;;;;;19.60;98659.00;;;;5053246;28;20575;-65
2023/09/23 12:17:40;;;;;;;4.10;1.25;;;;;19.60;98656.00;;;;5053918;28;20119;-65
2023/09/23 12:20:11;;;;;;;3.65;1.45;;;;;19.50;98661.00;;;;5053865;28;20409;-65
2023/09/23 12:22:39;;;;;;;2.75;1.00;;;;;19.50;98665.00;;;;5053734;28;20045;-64
2023/09/23 12:25:06;;;;;;;3.63;1.05;;;;;19.40;98660.00;;;;5053038;28;20037;-64